sensor_id;sensor_type;location;lat;lon;timestamp;P1;durP1;ratioP1;P2;durP2;ratioP2
21886;SDS011;11108;49.988;8.182;2023-04-16T00:00:57;5.40;;;4.90;;
21886;SDS011;11108;49.988;8.182;2023-04-16T00:03:22;5.60;;;5.00;;
21886;SDS011;11108;49.988;8.182;2023-04-16T00:05:48;4.40;;;4.00;;
21886;SDS011;11108;49.988;8.182;2023-04-16T00:08:13;4.90;;;4.50;;
21886;SDS011;11108;49.988;8.182;2023-04-16T00:10:38;4.60;;;4.20;;
21886;SDS011;11108;49.988;8.182;2023-04-16T00:13:03;4.60;;;4.20;;
21886;SDS011;11108;49.988;8.182;2023-04-16T00:15:28;4.70;;;4.30;;
21886;SDS011;11108;49.988;8.182;2023-04-16T00:17:54;4.27;;;3.97;;
21886;SDS011;11108;49.988;8.182;2023-04-16T00:20:19;4.43;;;4.03;;
21886;SDS011;11108;49.988;8.182;2023-04-16T00:22:44;4.50;;;4.10;;
21886;SDS011;11108;49.988;8.182;2023-04-16T00:25:10;4.63;;;4.27;;
21886;SDS011;11108;49.988;8.182;2023-04-16T00:27:35;3.80;;;3.50;;
21886;SDS011;11108;49.988;8.182;2023-04-16T00:30:00;3.80;;;3.50;;
21886;SDS011;11108;49.988;8.182;2023-04-16T00:32:25;3.97;;;3.67;;
21886;SDS011;11108;49.988;8.182;2023-04-16T00:34:50;4.50;;;4.10;;
21886;SDS011;11108;49.988;8.182;2023-04-16T00:37:16;4.17;;;3.87;;
21886;SDS011;11108;49.988;8.182;2023-04-16T00:39:41;4.10;;;3.80;;
21886;SDS011;11108;49.988;8.182;2023-04-16T00:42:06;3.90;;;3.60;;
21886;SDS011;11108;49.988;8.182;2023-04-16T00:44:31;3.97;;;3.67;;
21886;SDS011;11108;49.988;8.182;2023-04-16T00:46:59;3.93;;;3.73;;
21886;SDS011;11108;49.988;8.182;2023-04-16T00:49:25;3.90;;;3.60;;
21886;SDS011;11108;49.988;8.182;2023-04-16T00:51:51;4.43;;;4.03;;
21886;SDS011;11108;49.988;8.182;2023-04-16T00:54:16;4.13;;;3.83;;
21886;SDS011;11108;49.988;8.182;2023-04-16T00:56:41;3.50;;;3.20;;
21886;SDS011;11108;49.988;8.182;2023-04-16T00:59:07;3.67;;;3.40;;
21886;SDS011;11108;49.988;8.182;2023-04-16T01:01:32;3.20;;;3.00;;
21886;SDS011;11108;49.988;8.182;2023-04-16T01:03:57;3.80;;;3.50;;
21886;SDS011;11108;49.988;8.182;2023-04-16T01:06:23;4.00;;;3.70;;
21886;SDS011;11108;49.988;8.182;2023-04-16T01:08:48;3.80;;;3.47;;
21886;SDS011;11108;49.988;8.182;2023-04-16T01:11:14;3.77;;;3.47;;
21886;SDS011;11108;49.988;8.182;2023-04-16T01:13:39;3.33;;;3.13;;
21886;SDS011;11108;49.988;8.182;2023-04-16T01:16:08;3.60;;;3.30;;
21886;SDS011;11108;49.988;8.182;2023-04-16T01:18:34;3.43;;;3.23;;
21886;SDS011;11108;49.988;8.182;2023-04-16T01:20:59;3.33;;;3.13;;
21886;SDS011;11108;49.988;8.182;2023-04-16T01:23:25;3.20;;;3.00;;
21886;SDS011;11108;49.988;8.182;2023-04-16T01:25:50;3.43;;;3.13;;
21886;SDS011;11108;49.988;8.182;2023-04-16T01:28:15;3.33;;;3.13;;
21886;SDS011;11108;49.988;8.182;2023-04-16T01:30:41;3.27;;;3.00;;
21886;SDS011;11108;49.988;8.182;2023-04-16T01:33:07;3.10;;;2.90;;
21886;SDS011;11108;49.988;8.182;2023-04-16T01:35:32;3.27;;;3.00;;
21886;SDS011;11108;49.988;8.182;2023-04-16T01:37:58;3.63;;;3.43;;
21886;SDS011;11108;49.988;8.182;2023-04-16T01:40:23;3.10;;;2.90;;
21886;SDS011;11108;49.988;8.182;2023-04-16T01:42:48;2.73;;;2.60;;
21886;SDS011;11108;49.988;8.182;2023-04-16T01:45:15;3.30;;;3.00;;
21886;SDS011;11108;49.988;8.182;2023-04-16T01:47:40;2.90;;;2.70;;
21886;SDS011;11108;49.988;8.182;2023-04-16T01:50:05;2.90;;;2.70;;
21886;SDS011;11108;49.988;8.182;2023-04-16T01:52:31;2.93;;;2.70;;
21886;SDS011;11108;49.988;8.182;2023-04-16T01:54:56;3.33;;;2.93;;
21886;SDS011;11108;49.988;8.182;2023-04-16T01:57:21;2.80;;;2.60;;
21886;SDS011;11108;49.988;8.182;2023-04-16T01:59:46;2.87;;;2.67;;
21886;SDS011;11108;49.988;8.182;2023-04-16T02:02:12;2.63;;;2.43;;
21886;SDS011;11108;49.988;8.182;2023-04-16T02:04:39;2.60;;;2.50;;
21886;SDS011;11108;49.988;8.182;2023-04-16T02:07:05;3.47;;;3.20;;
21886;SDS011;11108;49.988;8.182;2023-04-16T02:09:32;2.73;;;2.53;;
21886;SDS011;11108;49.988;8.182;2023-04-16T02:11:58;2.60;;;2.50;;
21886;SDS011;11108;49.988;8.182;2023-04-16T02:14:23;2.90;;;2.70;;
21886;SDS011;11108;49.988;8.182;2023-04-16T02:16:49;2.80;;;2.60;;
21886;SDS011;11108;49.988;8.182;2023-04-16T02:19:15;2.63;;;2.43;;
21886;SDS011;11108;49.988;8.182;2023-04-16T02:21:40;3.07;;;2.87;;
21886;SDS011;11108;49.988;8.182;2023-04-16T02:24:05;2.43;;;2.33;;
21886;SDS011;11108;49.988;8.182;2023-04-16T02:26:31;2.90;;;2.70;;
21886;SDS011;11108;49.988;8.182;2023-04-16T02:28:56;2.97;;;2.87;;
21886;SDS011;11108;49.988;8.182;2023-04-16T02:31:21;2.40;;;2.30;;
21886;SDS011;11108;49.988;8.182;2023-04-16T02:33:47;2.67;;;2.50;;
21886;SDS011;11108;49.988;8.182;2023-04-16T02:36:12;3.10;;;2.90;;
21886;SDS011;11108;49.988;8.182;2023-04-16T02:38:37;2.63;;;2.53;;
21886;SDS011;11108;49.988;8.182;2023-04-16T02:41:02;2.53;;;2.33;;
21886;SDS011;11108;49.988;8.182;2023-04-16T02:43:28;2.80;;;2.60;;
21886;SDS011;11108;49.988;8.182;2023-04-16T02:45:53;2.80;;;2.60;;
21886;SDS011;11108;49.988;8.182;2023-04-16T02:48:18;2.50;;;2.30;;
21886;SDS011;11108;49.988;8.182;2023-04-16T02:50:43;2.30;;;2.20;;
21886;SDS011;11108;49.988;8.182;2023-04-16T02:53:08;2.33;;;2.23;;
21886;SDS011;11108;49.988;8.182;2023-04-16T02:55:34;2.30;;;2.20;;
21886;SDS011;11108;49.988;8.182;2023-04-16T02:57:59;2.53;;;2.43;;
21886;SDS011;11108;49.988;8.182;2023-04-16T03:00:25;2.10;;;2.00;;
21886;SDS011;11108;49.988;8.182;2023-04-16T03:02:50;2.20;;;2.10;;
21886;SDS011;11108;49.988;8.182;2023-04-16T03:05:15;2.97;;;2.77;;
21886;SDS011;11108;49.988;8.182;2023-04-16T03:07:41;2.70;;;2.50;;
21886;SDS011;11108;49.988;8.182;2023-04-16T03:10:06;2.80;;;2.60;;
21886;SDS011;11108;49.988;8.182;2023-04-16T03:12:31;2.43;;;2.33;;
21886;SDS011;11108;49.988;8.182;2023-04-16T03:14:57;2.30;;;2.20;;
21886;SDS011;11108;49.988;8.182;2023-04-16T03:17:22;2.40;;;2.30;;
21886;SDS011;11108;49.988;8.182;2023-04-16T03:19:47;2.50;;;2.40;;
21886;SDS011;11108;49.988;8.182;2023-04-16T03:22:14;2.30;;;2.10;;
21886;SDS011;11108;49.988;8.182;2023-04-16T03:24:39;2.47;;;2.37;;
21886;SDS011;11108;49.988;8.182;2023-04-16T03:27:05;2.30;;;2.20;;
21886;SDS011;11108;49.988;8.182;2023-04-16T03:29:30;2.33;;;2.23;;
21886;SDS011;11108;49.988;8.182;2023-04-16T03:31:55;2.30;;;2.20;;
21886;SDS011;11108;49.988;8.182;2023-04-16T03:34:20;2.10;;;2.00;;
21886;SDS011;11108;49.988;8.182;2023-04-16T03:36:45;2.60;;;2.50;;
21886;SDS011;11108;49.988;8.182;2023-04-16T03:39:11;2.60;;;2.50;;
21886;SDS011;11108;49.988;8.182;2023-04-16T03:41:36;2.03;;;1.93;;
21886;SDS011;11108;49.988;8.182;2023-04-16T03:44:01;2.00;;;1.90;;
21886;SDS011;11108;49.988;8.182;2023-04-16T03:46:26;2.07;;;1.97;;
21886;SDS011;11108;49.988;8.182;2023-04-16T03:48:51;2.30;;;2.20;;
21886;SDS011;11108;49.988;8.182;2023-04-16T03:51:17;2.20;;;2.10;;
21886;SDS011;11108;49.988;8.182;2023-04-16T03:53:42;2.10;;;2.00;;
21886;SDS011;11108;49.988;8.182;2023-04-16T03:56:07;2.37;;;2.27;;
21886;SDS011;11108;49.988;8.182;2023-04-16T03:58:32;2.27;;;2.13;;
21886;SDS011;11108;49.988;8.182;2023-04-16T04:00:57;2.03;;;1.93;;
21886;SDS011;11108;49.988;8.182;2023-04-16T04:03:23;2.40;;;2.30;;
21886;SDS011;11108;49.988;8.182;2023-04-16T04:05:48;2.27;;;2.17;;
21886;SDS011;11108;49.988;8.182;2023-04-16T04:08:13;2.07;;;1.97;;
21886;SDS011;11108;49.988;8.182;2023-04-16T04:10:38;2.10;;;2.00;;
21886;SDS011;11108;49.988;8.182;2023-04-16T04:13:04;2.20;;;2.10;;
21886;SDS011;11108;49.988;8.182;2023-04-16T04:15:29;2.33;;;2.23;;
21886;SDS011;11108;49.988;8.182;2023-04-16T04:17:55;2.30;;;2.20;;
21886;SDS011;11108;49.988;8.182;2023-04-16T04:20:20;1.90;;;1.80;;
21886;SDS011;11108;49.988;8.182;2023-04-16T04:22:45;2.63;;;2.43;;
21886;SDS011;11108;49.988;8.182;2023-04-16T04:25:11;2.13;;;2.03;;
21886;SDS011;11108;49.988;8.182;2023-04-16T04:27:36;2.00;;;1.90;;
21886;SDS011;11108;49.988;8.182;2023-04-16T04:30:02;2.03;;;1.93;;
21886;SDS011;11108;49.988;8.182;2023-04-16T04:32:28;2.03;;;1.93;;
21886;SDS011;11108;49.988;8.182;2023-04-16T04:34:53;1.97;;;1.87;;
21886;SDS011;11108;49.988;8.182;2023-04-16T04:37:19;2.10;;;2.00;;
21886;SDS011;11108;49.988;8.182;2023-04-16T04:39:45;2.10;;;2.00;;
21886;SDS011;11108;49.988;8.182;2023-04-16T04:42:10;2.00;;;1.90;;
21886;SDS011;11108;49.988;8.182;2023-04-16T04:44:35;2.37;;;2.27;;
21886;SDS011;11108;49.988;8.182;2023-04-16T04:47:00;2.10;;;2.00;;
21886;SDS011;11108;49.988;8.182;2023-04-16T04:49:25;2.20;;;2.10;;
21886;SDS011;11108;49.988;8.182;2023-04-16T04:51:51;1.77;;;1.67;;
21886;SDS011;11108;49.988;8.182;2023-04-16T04:54:16;2.00;;;1.90;;
21886;SDS011;11108;49.988;8.182;2023-04-16T04:56:41;2.10;;;2.00;;
21886;SDS011;11108;49.988;8.182;2023-04-16T04:59:09;2.07;;;1.97;;
21886;SDS011;11108;49.988;8.182;2023-04-16T05:01:34;1.63;;;1.63;;
21886;SDS011;11108;49.988;8.182;2023-04-16T05:03:59;2.20;;;2.10;;
21886;SDS011;11108;49.988;8.182;2023-04-16T05:06:25;1.80;;;1.70;;
21886;SDS011;11108;49.988;8.182;2023-04-16T05:08:51;2.37;;;2.17;;
21886;SDS011;11108;49.988;8.182;2023-04-16T05:11:16;2.40;;;2.30;;
21886;SDS011;11108;49.988;8.182;2023-04-16T05:13:41;2.03;;;1.93;;
21886;SDS011;11108;49.988;8.182;2023-04-16T05:16:06;2.03;;;1.93;;
21886;SDS011;11108;49.988;8.182;2023-04-16T05:18:31;2.33;;;2.23;;
21886;SDS011;11108;49.988;8.182;2023-04-16T05:20:57;2.20;;;2.10;;
21886;SDS011;11108;49.988;8.182;2023-04-16T05:23:22;2.30;;;2.20;;
21886;SDS011;11108;49.988;8.182;2023-04-16T05:25:47;2.33;;;2.23;;
21886;SDS011;11108;49.988;8.182;2023-04-16T05:28:12;2.17;;;2.07;;
21886;SDS011;11108;49.988;8.182;2023-04-16T05:30:38;2.10;;;2.00;;
21886;SDS011;11108;49.988;8.182;2023-04-16T05:33:03;2.10;;;2.00;;
21886;SDS011;11108;49.988;8.182;2023-04-16T05:35:28;2.13;;;2.03;;
21886;SDS011;11108;49.988;8.182;2023-04-16T05:37:53;2.33;;;2.23;;
21886;SDS011;11108;49.988;8.182;2023-04-16T05:40:18;2.33;;;2.20;;
21886;SDS011;11108;49.988;8.182;2023-04-16T05:42:44;2.50;;;2.20;;
21886;SDS011;11108;49.988;8.182;2023-04-16T05:45:09;2.40;;;2.30;;
21886;SDS011;11108;49.988;8.182;2023-04-16T05:47:34;2.10;;;2.00;;
21886;SDS011;11108;49.988;8.182;2023-04-16T05:49:59;2.33;;;2.17;;
21886;SDS011;11108;49.988;8.182;2023-04-16T05:52:25;2.10;;;2.00;;
21886;SDS011;11108;49.988;8.182;2023-04-16T05:54:50;2.50;;;2.40;;
21886;SDS011;11108;49.988;8.182;2023-04-16T05:57:15;1.93;;;1.83;;
21886;SDS011;11108;49.988;8.182;2023-04-16T05:59:40;2.40;;;2.30;;
21886;SDS011;11108;49.988;8.182;2023-04-16T06:02:05;2.10;;;2.00;;
21886;SDS011;11108;49.988;8.182;2023-04-16T06:04:31;2.20;;;2.10;;
21886;SDS011;11108;49.988;8.182;2023-04-16T06:06:56;2.17;;;2.07;;
21886;SDS011;11108;49.988;8.182;2023-04-16T06:09:21;2.37;;;2.17;;
21886;SDS011;11108;49.988;8.182;2023-04-16T06:11:46;2.43;;;2.30;;
21886;SDS011;11108;49.988;8.182;2023-04-16T06:14:12;2.40;;;2.30;;
21886;SDS011;11108;49.988;8.182;2023-04-16T06:16:37;2.50;;;2.40;;
21886;SDS011;11108;49.988;8.182;2023-04-16T06:19:02;2.40;;;2.20;;
21886;SDS011;11108;49.988;8.182;2023-04-16T06:21:27;2.83;;;2.30;;
21886;SDS011;11108;49.988;8.182;2023-04-16T06:23:53;2.83;;;2.63;;
21886;SDS011;11108;49.988;8.182;2023-04-16T06:26:18;2.50;;;2.40;;
21886;SDS011;11108;49.988;8.182;2023-04-16T06:28:44;2.63;;;2.53;;
21886;SDS011;11108;49.988;8.182;2023-04-16T06:31:09;2.57;;;2.37;;
21886;SDS011;11108;49.988;8.182;2023-04-16T06:33:34;2.43;;;2.33;;
21886;SDS011;11108;49.988;8.182;2023-04-16T06:35:59;2.77;;;2.67;;
21886;SDS011;11108;49.988;8.182;2023-04-16T06:38:24;2.80;;;2.60;;
21886;SDS011;11108;49.988;8.182;2023-04-16T06:40:50;2.47;;;2.37;;
21886;SDS011;11108;49.988;8.182;2023-04-16T06:43:15;2.67;;;2.57;;
21886;SDS011;11108;49.988;8.182;2023-04-16T06:45:41;2.43;;;2.33;;
21886;SDS011;11108;49.988;8.182;2023-04-16T06:48:07;2.50;;;2.30;;
21886;SDS011;11108;49.988;8.182;2023-04-16T06:50:32;2.63;;;2.43;;
21886;SDS011;11108;49.988;8.182;2023-04-16T06:52:57;3.43;;;2.70;;
21886;SDS011;11108;49.988;8.182;2023-04-16T06:55:22;2.40;;;2.30;;
21886;SDS011;11108;49.988;8.182;2023-04-16T06:57:47;2.70;;;2.60;;
21886;SDS011;11108;49.988;8.182;2023-04-16T07:00:13;2.70;;;2.50;;
21886;SDS011;11108;49.988;8.182;2023-04-16T07:02:38;2.90;;;2.60;;
21886;SDS011;11108;49.988;8.182;2023-04-16T07:05:03;2.50;;;2.30;;
21886;SDS011;11108;49.988;8.182;2023-04-16T07:07:28;2.77;;;2.60;;
21886;SDS011;11108;49.988;8.182;2023-04-16T07:09:54;2.43;;;2.33;;
21886;SDS011;11108;49.988;8.182;2023-04-16T07:12:20;2.60;;;2.50;;
21886;SDS011;11108;49.988;8.182;2023-04-16T07:14:45;2.33;;;2.23;;
21886;SDS011;11108;49.988;8.182;2023-04-16T07:17:11;2.83;;;2.63;;
21886;SDS011;11108;49.988;8.182;2023-04-16T07:19:36;2.80;;;2.70;;
21886;SDS011;11108;49.988;8.182;2023-04-16T07:22:01;2.90;;;2.60;;
21886;SDS011;11108;49.988;8.182;2023-04-16T07:24:27;3.20;;;3.00;;
21886;SDS011;11108;49.988;8.182;2023-04-16T07:26:52;2.30;;;2.20;;
21886;SDS011;11108;49.988;8.182;2023-04-16T07:29:17;2.70;;;2.57;;
21886;SDS011;11108;49.988;8.182;2023-04-16T07:31:42;2.50;;;2.40;;
21886;SDS011;11108;49.988;8.182;2023-04-16T07:34:08;3.10;;;2.90;;
21886;SDS011;11108;49.988;8.182;2023-04-16T07:36:33;2.83;;;2.63;;
21886;SDS011;11108;49.988;8.182;2023-04-16T07:38:58;3.00;;;2.80;;
21886;SDS011;11108;49.988;8.182;2023-04-16T07:41:24;3.00;;;2.80;;
21886;SDS011;11108;49.988;8.182;2023-04-16T07:43:49;2.60;;;2.50;;
21886;SDS011;11108;49.988;8.182;2023-04-16T07:46:14;2.50;;;2.30;;
21886;SDS011;11108;49.988;8.182;2023-04-16T07:48:40;2.77;;;2.57;;
21886;SDS011;11108;49.988;8.182;2023-04-16T07:51:05;2.90;;;2.70;;
21886;SDS011;11108;49.988;8.182;2023-04-16T07:53:30;3.00;;;2.80;;
21886;SDS011;11108;49.988;8.182;2023-04-16T07:55:55;3.17;;;2.97;;
21886;SDS011;11108;49.988;8.182;2023-04-16T07:58:20;2.60;;;2.50;;
21886;SDS011;11108;49.988;8.182;2023-04-16T08:00:46;2.60;;;2.50;;
21886;SDS011;11108;49.988;8.182;2023-04-16T08:03:11;2.80;;;2.40;;
21886;SDS011;11108;49.988;8.182;2023-04-16T08:05:36;2.73;;;2.50;;
21886;SDS011;11108;49.988;8.182;2023-04-16T08:08:01;2.40;;;2.30;;
21886;SDS011;11108;49.988;8.182;2023-04-16T08:10:26;3.77;;;2.67;;
21886;SDS011;11108;49.988;8.182;2023-04-16T08:12:52;3.83;;;2.80;;
21886;SDS011;11108;49.988;8.182;2023-04-16T08:15:17;3.03;;;2.73;;
21886;SDS011;11108;49.988;8.182;2023-04-16T08:17:43;3.20;;;3.00;;
21886;SDS011;11108;49.988;8.182;2023-04-16T08:20:08;3.47;;;3.17;;
21886;SDS011;11108;49.988;8.182;2023-04-16T08:22:33;2.80;;;2.60;;
21886;SDS011;11108;49.988;8.182;2023-04-16T08:24:58;2.57;;;2.37;;
21886;SDS011;11108;49.988;8.182;2023-04-16T08:27:24;2.73;;;2.53;;
21886;SDS011;11108;49.988;8.182;2023-04-16T08:29:49;2.93;;;2.73;;
21886;SDS011;11108;49.988;8.182;2023-04-16T08:32:14;3.00;;;2.60;;
21886;SDS011;11108;49.988;8.182;2023-04-16T08:34:40;3.17;;;2.87;;
21886;SDS011;11108;49.988;8.182;2023-04-16T08:37:05;3.53;;;2.67;;
21886;SDS011;11108;49.988;8.182;2023-04-16T08:39:30;3.13;;;2.67;;
21886;SDS011;11108;49.988;8.182;2023-04-16T08:41:56;3.77;;;2.57;;
21886;SDS011;11108;49.988;8.182;2023-04-16T08:44:26;2.73;;;2.43;;
21886;SDS011;11108;49.988;8.182;2023-04-16T08:46:52;3.47;;;2.80;;
21886;SDS011;11108;49.988;8.182;2023-04-16T08:49:22;3.10;;;2.90;;
21886;SDS011;11108;49.988;8.182;2023-04-16T08:51:51;3.23;;;2.93;;
21886;SDS011;11108;49.988;8.182;2023-04-16T08:54:24;2.77;;;2.57;;
21886;SDS011;11108;49.988;8.182;2023-04-16T08:56:51;2.50;;;2.30;;
21886;SDS011;11108;49.988;8.182;2023-04-16T08:59:16;2.30;;;2.20;;
21886;SDS011;11108;49.988;8.182;2023-04-16T09:01:41;2.97;;;2.50;;
21886;SDS011;11108;49.988;8.182;2023-04-16T09:04:06;2.80;;;2.60;;
21886;SDS011;11108;49.988;8.182;2023-04-16T09:06:32;3.27;;;2.87;;
21886;SDS011;11108;49.988;8.182;2023-04-16T09:08:58;2.67;;;2.47;;
21886;SDS011;11108;49.988;8.182;2023-04-16T09:11:24;2.73;;;2.57;;
21886;SDS011;11108;49.988;8.182;2023-04-16T09:13:49;2.97;;;2.77;;
21886;SDS011;11108;49.988;8.182;2023-04-16T09:16:15;2.73;;;2.53;;
21886;SDS011;11108;49.988;8.182;2023-04-16T09:18:41;2.33;;;2.23;;
21886;SDS011;11108;49.988;8.182;2023-04-16T09:21:07;3.20;;;2.90;;
21886;SDS011;11108;49.988;8.182;2023-04-16T09:23:33;3.10;;;2.90;;
21886;SDS011;11108;49.988;8.182;2023-04-16T09:25:58;2.70;;;2.57;;
21886;SDS011;11108;49.988;8.182;2023-04-16T09:31:11;3.00;;;2.70;;
21886;SDS011;11108;49.988;8.182;2023-04-16T09:33:37;2.93;;;2.70;;
21886;SDS011;11108;49.988;8.182;2023-04-16T09:36:02;2.67;;;2.57;;
21886;SDS011;11108;49.988;8.182;2023-04-16T09:41:12;2.90;;;2.70;;
21886;SDS011;11108;49.988;8.182;2023-04-16T09:43:40;2.87;;;2.60;;
21886;SDS011;11108;49.988;8.182;2023-04-16T09:46:05;2.63;;;2.50;;
21886;SDS011;11108;49.988;8.182;2023-04-16T09:48:31;2.93;;;2.73;;
21886;SDS011;11108;49.988;8.182;2023-04-16T09:50:57;2.10;;;2.00;;
21886;SDS011;11108;49.988;8.182;2023-04-16T09:53:26;2.90;;;2.70;;
21886;SDS011;11108;49.988;8.182;2023-04-16T09:55:54;2.40;;;2.27;;
21886;SDS011;11108;49.988;8.182;2023-04-16T09:58:20;3.23;;;2.93;;
21886;SDS011;11108;49.988;8.182;2023-04-16T10:00:45;3.30;;;2.80;;
21886;SDS011;11108;49.988;8.182;2023-04-16T10:03:10;2.67;;;2.47;;
21886;SDS011;11108;49.988;8.182;2023-04-16T10:05:36;2.77;;;2.67;;
21886;SDS011;11108;49.988;8.182;2023-04-16T10:08:01;2.83;;;2.63;;
21886;SDS011;11108;49.988;8.182;2023-04-16T10:10:27;3.00;;;2.80;;
21886;SDS011;11108;49.988;8.182;2023-04-16T10:13:21;3.33;;;2.87;;
21886;SDS011;11108;49.988;8.182;2023-04-16T10:22:46;2.87;;;2.67;;
21886;SDS011;11108;49.988;8.182;2023-04-16T10:32:15;3.03;;;2.83;;
21886;SDS011;11108;49.988;8.182;2023-04-16T10:34:57;3.87;;;3.67;;
21886;SDS011;11108;49.988;8.182;2023-04-16T11:18:07;3.80;;;3.40;;
21886;SDS011;11108;49.988;8.182;2023-04-16T11:20:33;3.40;;;3.10;;
21886;SDS011;11108;49.988;8.182;2023-04-16T11:22:58;3.67;;;3.40;;
21886;SDS011;11108;49.988;8.182;2023-04-16T11:25:25;3.50;;;3.30;;
21886;SDS011;11108;49.988;8.182;2023-04-16T11:27:54;3.70;;;3.40;;
21886;SDS011;11108;49.988;8.182;2023-04-16T11:32:54;4.00;;;3.60;;
21886;SDS011;11108;49.988;8.182;2023-04-16T11:35:19;3.87;;;3.60;;
21886;SDS011;11108;49.988;8.182;2023-04-16T11:37:45;3.90;;;3.30;;
21886;SDS011;11108;49.988;8.182;2023-04-16T11:40:10;3.80;;;3.50;;
21886;SDS011;11108;49.988;8.182;2023-04-16T11:42:36;3.63;;;3.43;;
21886;SDS011;11108;49.988;8.182;2023-04-16T11:45:04;4.03;;;3.73;;
21886;SDS011;11108;49.988;8.182;2023-04-16T11:47:31;4.80;;;3.83;;
21886;SDS011;11108;49.988;8.182;2023-04-16T11:49:57;4.00;;;3.70;;
21886;SDS011;11108;49.988;8.182;2023-04-16T11:52:26;5.17;;;3.83;;
21886;SDS011;11108;49.988;8.182;2023-04-16T11:54:51;4.40;;;4.10;;
21886;SDS011;11108;49.988;8.182;2023-04-16T11:57:22;4.30;;;4.00;;
21886;SDS011;11108;49.988;8.182;2023-04-16T11:59:48;4.10;;;3.63;;
21886;SDS011;11108;49.988;8.182;2023-04-16T12:02:13;4.20;;;3.80;;
21886;SDS011;11108;49.988;8.182;2023-04-16T12:04:38;4.53;;;4.13;;
21886;SDS011;11108;49.988;8.182;2023-04-16T12:07:10;4.57;;;3.83;;
21886;SDS011;11108;49.988;8.182;2023-04-16T12:09:36;4.63;;;4.20;;
21886;SDS011;11108;49.988;8.182;2023-04-16T12:12:01;4.70;;;4.30;;
21886;SDS011;11108;49.988;8.182;2023-04-16T12:14:27;4.20;;;3.80;;
21886;SDS011;11108;49.988;8.182;2023-04-16T12:16:53;4.20;;;3.80;;
21886;SDS011;11108;49.988;8.182;2023-04-16T12:19:18;5.23;;;4.07;;
21886;SDS011;11108;49.988;8.182;2023-04-16T12:21:44;4.37;;;3.97;;
21886;SDS011;11108;49.988;8.182;2023-04-16T12:24:10;4.10;;;3.80;;
21886;SDS011;11108;49.988;8.182;2023-04-16T12:26:44;4.80;;;4.40;;
21886;SDS011;11108;49.988;8.182;2023-04-16T12:29:20;4.53;;;4.13;;
21886;SDS011;11108;49.988;8.182;2023-04-16T12:31:46;5.73;;;4.30;;
21886;SDS011;11108;49.988;8.182;2023-04-16T12:34:11;5.13;;;4.00;;
21886;SDS011;11108;49.988;8.182;2023-04-16T12:36:37;4.10;;;3.80;;
21886;SDS011;11108;49.988;8.182;2023-04-16T12:39:03;4.33;;;4.00;;
21886;SDS011;11108;49.988;8.182;2023-04-16T12:41:29;4.23;;;3.93;;
21886;SDS011;11108;49.988;8.182;2023-04-16T12:44:04;4.43;;;4.03;;
21886;SDS011;11108;49.988;8.182;2023-04-16T12:46:30;5.00;;;4.60;;
21886;SDS011;11108;49.988;8.182;2023-04-16T12:48:56;5.40;;;4.90;;
21886;SDS011;11108;49.988;8.182;2023-04-16T12:51:21;4.77;;;4.27;;
21886;SDS011;11108;49.988;8.182;2023-04-16T12:53:47;4.63;;;4.23;;
21886;SDS011;11108;49.988;8.182;2023-04-16T12:56:12;4.50;;;4.10;;
21886;SDS011;11108;49.988;8.182;2023-04-16T12:58:37;4.00;;;3.70;;
21886;SDS011;11108;49.988;8.182;2023-04-16T13:01:02;4.83;;;4.43;;
21886;SDS011;11108;49.988;8.182;2023-04-16T13:03:27;4.50;;;4.10;;
21886;SDS011;11108;49.988;8.182;2023-04-16T13:05:53;5.70;;;4.60;;
21886;SDS011;11108;49.988;8.182;2023-04-16T13:08:18;4.30;;;4.00;;
21886;SDS011;11108;49.988;8.182;2023-04-16T13:10:44;4.60;;;4.30;;
21886;SDS011;11108;49.988;8.182;2023-04-16T13:13:09;4.87;;;4.57;;
21886;SDS011;11108;49.988;8.182;2023-04-16T13:15:34;5.00;;;4.60;;
21886;SDS011;11108;49.988;8.182;2023-04-16T13:17:59;4.93;;;4.43;;
21886;SDS011;11108;49.988;8.182;2023-04-16T13:20:25;4.40;;;4.03;;
21886;SDS011;11108;49.988;8.182;2023-04-16T13:22:50;4.73;;;4.33;;
21886;SDS011;11108;49.988;8.182;2023-04-16T13:25:15;4.50;;;4.20;;
21886;SDS011;11108;49.988;8.182;2023-04-16T13:27:41;4.70;;;3.90;;
21886;SDS011;11108;49.988;8.182;2023-04-16T13:30:06;4.77;;;4.37;;
21886;SDS011;11108;49.988;8.182;2023-04-16T13:32:31;4.57;;;4.27;;
21886;SDS011;11108;49.988;8.182;2023-04-16T13:34:57;4.83;;;4.43;;
21886;SDS011;11108;49.988;8.182;2023-04-16T13:37:22;4.90;;;4.00;;
21886;SDS011;11108;49.988;8.182;2023-04-16T13:39:48;5.07;;;4.53;;
21886;SDS011;11108;49.988;8.182;2023-04-16T13:42:13;5.10;;;4.70;;
21886;SDS011;11108;49.988;8.182;2023-04-16T13:44:38;5.47;;;4.13;;
21886;SDS011;11108;49.988;8.182;2023-04-16T13:47:03;4.73;;;4.17;;
21886;SDS011;11108;49.988;8.182;2023-04-16T13:49:28;4.93;;;4.53;;
21886;SDS011;11108;49.988;8.182;2023-04-16T13:51:54;4.60;;;4.13;;
21886;SDS011;11108;49.988;8.182;2023-04-16T13:54:20;5.30;;;4.57;;
21886;SDS011;11108;49.988;8.182;2023-04-16T13:56:45;4.67;;;4.27;;
21886;SDS011;11108;49.988;8.182;2023-04-16T13:59:10;4.60;;;4.20;;
21886;SDS011;11108;49.988;8.182;2023-04-16T14:01:35;4.60;;;4.20;;
21886;SDS011;11108;49.988;8.182;2023-04-16T14:04:00;6.33;;;4.57;;
21886;SDS011;11108;49.988;8.182;2023-04-16T14:06:30;5.17;;;4.23;;
21886;SDS011;11108;49.988;8.182;2023-04-16T14:08:56;5.67;;;4.53;;
21886;SDS011;11108;49.988;8.182;2023-04-16T14:11:21;4.90;;;4.40;;
21886;SDS011;11108;49.988;8.182;2023-04-16T14:13:47;4.73;;;4.20;;
21886;SDS011;11108;49.988;8.182;2023-04-16T14:16:12;4.23;;;3.93;;
21886;SDS011;11108;49.988;8.182;2023-04-16T14:18:38;4.73;;;4.13;;
21886;SDS011;11108;49.988;8.182;2023-04-16T14:21:06;5.20;;;4.60;;
21886;SDS011;11108;49.988;8.182;2023-04-16T14:23:31;4.53;;;4.13;;
21886;SDS011;11108;49.988;8.182;2023-04-16T14:25:56;4.63;;;4.23;;
21886;SDS011;11108;49.988;8.182;2023-04-16T14:28:21;4.37;;;4.07;;
21886;SDS011;11108;49.988;8.182;2023-04-16T14:30:47;4.37;;;4.07;;
21886;SDS011;11108;49.988;8.182;2023-04-16T14:33:12;4.17;;;3.80;;
21886;SDS011;11108;49.988;8.182;2023-04-16T14:35:37;4.43;;;4.07;;
21886;SDS011;11108;49.988;8.182;2023-04-16T14:38:02;4.23;;;3.93;;
21886;SDS011;11108;49.988;8.182;2023-04-16T14:40:27;4.80;;;4.40;;
21886;SDS011;11108;49.988;8.182;2023-04-16T14:42:53;5.03;;;4.57;;
21886;SDS011;11108;49.988;8.182;2023-04-16T14:45:18;4.80;;;4.47;;
21886;SDS011;11108;49.988;8.182;2023-04-16T14:47:43;4.90;;;4.40;;
21886;SDS011;11108;49.988;8.182;2023-04-16T14:50:12;4.90;;;4.50;;
21886;SDS011;11108;49.988;8.182;2023-04-16T14:52:37;4.93;;;4.50;;
21886;SDS011;11108;49.988;8.182;2023-04-16T14:55:03;4.77;;;4.30;;
21886;SDS011;11108;49.988;8.182;2023-04-16T14:57:29;5.30;;;4.80;;
21886;SDS011;11108;49.988;8.182;2023-04-16T14:59:54;4.63;;;4.17;;
21886;SDS011;11108;49.988;8.182;2023-04-16T15:02:20;4.93;;;4.43;;
21886;SDS011;11108;49.988;8.182;2023-04-16T15:04:45;5.00;;;4.60;;
21886;SDS011;11108;49.988;8.182;2023-04-16T15:07:10;5.87;;;4.80;;
21886;SDS011;11108;49.988;8.182;2023-04-16T15:09:35;6.43;;;4.73;;
21886;SDS011;11108;49.988;8.182;2023-04-16T15:12:00;6.70;;;4.80;;
21886;SDS011;11108;49.988;8.182;2023-04-16T15:14:26;4.63;;;4.23;;
21886;SDS011;11108;49.988;8.182;2023-04-16T15:16:51;5.37;;;4.70;;
21886;SDS011;11108;49.988;8.182;2023-04-16T15:19:17;6.97;;;4.80;;
21886;SDS011;11108;49.988;8.182;2023-04-16T15:21:42;6.37;;;4.90;;
21886;SDS011;11108;49.988;8.182;2023-04-16T15:24:07;4.97;;;4.40;;
21886;SDS011;11108;49.988;8.182;2023-04-16T15:26:33;6.77;;;4.63;;
21886;SDS011;11108;49.988;8.182;2023-04-16T15:28:58;9.40;;;8.00;;
21886;SDS011;11108;49.988;8.182;2023-04-16T15:31:23;24.20;;;16.67;;
21886;SDS011;11108;49.988;8.182;2023-04-16T15:33:48;33.80;;;22.27;;
21886;SDS011;11108;49.988;8.182;2023-04-16T15:36:13;45.00;;;27.87;;
21886;SDS011;11108;49.988;8.182;2023-04-16T15:38:39;49.57;;;28.43;;
21886;SDS011;11108;49.988;8.182;2023-04-16T15:41:05;43.63;;;27.07;;